Essex Junction, Vermont
Current Conditions -  °F | °C
As of 10:54 AM on Friday 31 Oct 2014 (Local Time) from KBTV Reporting Station
Scattered Clouds Scattered Clouds  
Wind Chill: 46°   Ceiling: Unl
Heat Index: 46°   Visibility: 10mi
Dew Point: 32°   Wind: 3mph
Humidity: 58%   Direction: NA
Pressure: 30.06"   Gusts: NA
Location:  44.49°N, 73.11°W
Report Text: KBTV 311454Z VRB03KT 10SM FEW060 SCT200 08/00 A3006 RMK AO2 SLP180 T00780000 50000
Loading
Personal Weather Stations






























Interactive Weather Map
Tropical Storm Tracking
New forecast layout! Learn more

10-Day Weather Forecast

Advertisements
Track Severe Weather on mobile